aviador You're here:

KDTO Decoded Metar

DENTON in TX, USA
Report Time2018-01-18 12:53:00
UTC Time2018-01-18 14:00:47
Flight Rules Old
WindCalm
Visibility9999 m
Phenomena:N/A
Clouds:N/A
Expected CloudBase > 1,200 ft AGL from Temp-Dew spread
CeilingNone
Temp-11°C (ISA -25)
Dew Point-14°C (79% RH)
AAT-14.3°C
QNH1034 hPa
Density Alt-3,136 ft
Elevation643 ft
Report Wrong Elevation
Raw Report
METAR KDTO 181253Z 00000KT 10SM CLR M11/M14 A3052 RMK AO2 SLP341 T11111144=

Extra information for KDTO:More info

Metar Taf Metar & Taf Last 4 Metars F.Rules Stats Wind Profile Meteogram Temp Stats Airport Information Weather charts Add Link Nearby VenuesMetar ALERT Operation Metar Decoded Social comments

AIRNAV info for KDTO